Time;durP1;ratioP1;P1;durP2;ratioP2;P2;SDS_P1;SDS_P2;PMS_P1;PMS_P2;Temp;Humidity;BMP_temperature;BMP_pressure;BME280_temperature;BME280_humidity;BME280_pressure;Samples;Min_cycle;Max_cycle;Signal;HPM_P1;HPM_P2
2023/07/23 00:00:28;;;;;;;;;2.00;2.00;;;;;26.96;44.71;100523.47;2104850;28;46513;-59
2023/07/23 00:01:28;;;;;;;;;2.00;2.00;;;;;26.96;44.15;100537.09;2095622;28;46795;-58
2023/07/23 00:02:29;;;;;;;;;5.25;3.75;;;;;26.95;44.52;100523.63;2095914;28;46732;-59
2023/07/23 00:03:29;;;;;;;;;3.00;3.00;;;;;26.96;44.92;100528.91;2104475;28;46218;-58
2023/07/23 00:04:29;;;;;;;;;5.00;4.00;;;;;26.97;44.85;100533.34;2104514;28;46057;-58
2023/07/23 00:05:30;;;;;;;;;7.00;6.50;;;;;26.98;44.18;100528.75;2104278;28;46793;-58
2023/07/23 00:06:32;;;;;;;;;5.75;5.75;;;;;26.98;44.78;100523.31;2105156;28;46711;-57
2023/07/23 00:07:33;;;;;;;;;4.00;4.00;;;;;26.97;44.56;100529.78;2096073;28;47053;-59
2023/07/23 00:08:33;;;;;;;;;4.00;4.00;;;;;26.96;44.56;100525.34;2100101;28;46558;-58
2023/07/23 00:09:33;;;;;;;;;4.00;4.00;;;;;26.96;44.49;100528.91;2105273;28;45510;-59
2023/07/23 00:10:34;;;;;;;;;4.33;4.33;;;;;26.96;44.76;100528.91;2104630;28;46309;-59
2023/07/23 00:11:34;;;;;;;;;4.75;4.75;;;;;26.96;45.07;100522.59;2104571;28;46491;-58
2023/07/23 00:12:36;;;;;;;;;7.00;7.00;;;;;26.94;45.37;100517.31;2095672;28;46783;-58
2023/07/23 00:13:36;;;;;;;;;2.20;2.20;;;;;26.93;45.11;100521.03;2096093;28;46845;-58
2023/07/23 00:14:36;;;;;;;;;2.25;2.00;;;;;26.94;44.87;100521.91;2095779;28;46538;-59
2023/07/23 00:15:37;;;;;;;;;4.00;4.00;;;;;26.92;45.21;100523.88;2096036;28;46358;-59
2023/07/23 00:16:37;;;;;;;;;8.00;8.00;;;;;26.92;44.98;100522.00;2104825;28;46180;-59
2023/07/23 00:17:39;;;;;;;;;8.00;8.00;;;;;26.92;45.16;100523.88;2104520;28;46231;-59
2023/07/23 00:18:39;;;;;;;;;10.20;10.00;;;;;26.89;45.23;100519.59;2104653;28;46837;-58
2023/07/23 00:19:39;;;;;;;;;4.00;4.00;;;;;26.89;45.57;100514.13;2104916;28;46812;-58
2023/07/23 00:20:40;;;;;;;;;2.75;2.75;;;;;26.88;45.63;100519.72;2105121;28;46564;-59
2023/07/23 00:21:40;;;;;;;;;4.00;4.00;;;;;26.86;45.92;100510.84;2104488;28;45980;-59
2023/07/23 00:22:40;;;;;;;;;7.75;7.75;;;;;26.86;45.83;100519.00;2104910;28;46654;-59
2023/07/23 00:23:40;;;;;;;;;5.75;4.75;;;;;26.86;46.09;100524.47;2104377;28;46636;-59
2023/07/23 00:24:42;;;;;;;;;4.25;4.25;;;;;26.85;45.85;100515.44;2104659;28;46636;-59
2023/07/23 00:25:42;;;;;;;;;4.20;4.20;;;;;26.85;46.13;100517.31;2105129;28;46376;-59
2023/07/23 00:26:43;;;;;;;;;2.75;2.75;;;;;26.85;46.02;100517.31;2104965;27;46593;-58
2023/07/23 00:27:44;;;;;;;;;3.40;3.40;;;;;26.82;46.08;100518.44;2105962;28;46803;-57
2023/07/23 00:28:44;;;;;;;;;1.33;1.33;;;;;26.81;45.87;100510.44;2106346;28;46554;-59
2023/07/23 00:29:44;;;;;;;;;6.25;6.25;;;;;26.81;46.29;100518.59;2105360;28;46498;-57
2023/07/23 00:30:44;;;;;;;;;4.00;4.00;;;;;26.81;46.68;100522.19;2105821;28;46518;-58
2023/07/23 00:31:45;;;;;;;;;6.50;5.25;;;;;26.81;46.78;100515.88;2106140;28;46600;-58
2023/07/23 00:32:45;;;;;;;;;6.25;6.25;;;;;26.81;46.49;100513.16;2097206;28;46499;-58
2023/07/23 00:33:45;;;;;;;;;4.50;4.50;;;;;26.81;46.69;100515.88;2097400;28;46431;-58
2023/07/23 00:34:46;;;;;;;;;4.75;4.25;;;;;26.79;46.80;100510.53;2105918;28;46198;-59
2023/07/23 00:35:46;;;;;;;;;3.00;3.00;;;;;26.79;46.42;100517.84;2105969;28;46328;-59
2023/07/23 00:36:47;;;;;;;;;5.25;5.25;;;;;26.78;46.77;100517.00;2106431;28;45995;-57
2023/07/23 00:37:47;;;;;;;;;4.50;4.50;;;;;26.76;46.94;100508.09;2106275;28;46351;-58
2023/07/23 00:38:49;;;;;;;;;2.75;2.75;;;;;26.76;46.47;100507.25;2105949;27;46732;-59
2023/07/23 00:39:49;;;;;;;;;2.00;2.00;;;;;26.75;46.54;100505.53;2106133;28;46447;-59
2023/07/23 00:40:50;;;;;;;;;2.50;2.25;;;;;26.74;47.24;100509.25;2106132;28;45874;-57
2023/07/23 00:41:50;;;;;;;;;2.75;2.75;;;;;26.76;46.58;100509.97;2079971;28;46290;-58
2023/07/23 00:42:51;;;;;;;;;2.00;2.00;;;;;26.77;46.86;100504.38;2079989;28;46297;-58
2023/07/23 00:43:51;;;;;;;;;2.00;2.00;;;;;26.75;47.22;100506.41;2106340;28;46181;-57
2023/07/23 00:44:52;;;;;;;;;3.00;3.00;;;;;26.75;46.84;100513.69;2096886;28;46253;-56
2023/07/23 00:45:52;;;;;;;;;3.00;3.00;;;;;26.74;46.69;100512.84;2097211;28;46215;-59
2023/07/23 00:46:56;;;;;;;;;2.00;1.00;;;;;26.75;47.50;100508.25;2106585;28;45697;-58
2023/07/23 00:47:57;;;;;;;;;2.75;2.50;;;;;26.72;46.97;100500.38;2106105;28;46771;-58
2023/07/23 00:49:01;;;;;;;;;2.00;2.00;;;;;26.71;46.94;100510.41;2106034;28;46300;-56
2023/07/23 00:50:02;;;;;;;;;2.40;2.40;;;;;26.69;47.76;100505.13;2106167;28;46841;-58
2023/07/23 00:51:03;;;;;;;;;7.80;7.80;;;;;26.67;47.13;100506.22;2096834;28;46738;-58
2023/07/23 00:52:06;;;;;;;;;4.50;4.50;;;;;26.65;47.15;100502.78;2096981;28;46783;-60
2023/07/23 00:53:06;;;;;;;;;3.00;3.00;;;;;26.62;47.79;100512.13;2106379;28;45478;-57
2023/07/23 00:54:07;;;;;;;;;3.00;3.00;;;;;26.62;47.35;100500.38;2097000;28;46612;-57
2023/07/23 00:55:08;;;;;;;;;3.00;3.00;;;;;26.65;47.60;100497.34;2097098;28;47385;-57
2023/07/23 00:56:09;;;;;;;;;5.75;4.00;;;;;26.63;47.23;100502.94;2106090;28;46284;-57
2023/07/23 00:57:11;;;;;;;;;3.67;3.00;;;;;26.67;47.86;100507.09;2105853;28;46879;-57
2023/07/23 00:58:11;;;;;;;;;12.80;12.20;;;;;26.64;48.04;100496.50;2106287;28;47148;-58
2023/07/23 00:59:12;;;;;;;;;12.25;11.25;;;;;26.66;48.02;100499.06;2106137;28;46557;-58
2023/07/23 01:00:13;;;;;;;;;18.50;15.75;;;;;26.64;47.43;100495.63;2105993;28;46585;-58
2023/07/23 01:01:13;;;;;;;;;9.25;8.75;;;;;26.62;47.59;100490.34;2088301;28;46389;-60
2023/07/23 01:02:14;;;;;;;;;5.75;5.75;;;;;26.61;47.45;100491.34;2088186;28;47168;-57
2023/07/23 01:03:14;;;;;;;;;2.25;2.25;;;;;26.62;47.69;100503.94;2105902;28;46600;-58
2023/07/23 01:04:16;;;;;;;;;3.67;2.00;;;;;26.62;47.76;100501.22;2106244;28;46238;-58
2023/07/23 01:05:16;;;;;;;;;1.00;1.00;;;;;26.61;48.18;100491.34;2105601;28;46503;-59
2023/07/23 01:06:19;;;;;;;;;1.00;1.00;;;;;26.63;47.52;100485.75;2105885;28;46317;-58
2023/07/23 01:07:20;;;;;;;;;3.75;2.00;;;;;26.63;48.47;100493.91;2106270;28;46653;-57
2023/07/23 01:08:20;;;;;;;;;2.00;2.00;;;;;26.62;48.34;100486.75;2106194;28;46250;-59
2023/07/23 01:09:23;;;;;;;;;1.67;1.67;;;;;26.64;48.13;100492.91;2106041;28;45577;-58
2023/07/23 01:10:24;;;;;;;;;2.25;1.50;;;;;26.62;48.87;100481.31;2105896;28;46401;-58
2023/07/23 01:11:26;;;;;;;;;0.75;0.75;;;;;26.61;49.02;100487.75;2105657;28;46118;-58
2023/07/23 01:12:27;;;;;;;;;1.00;1.00;;;;;26.60;48.79;100491.50;2105979;28;46572;-58
2023/07/23 01:13:28;;;;;;;;;2.00;2.00;;;;;26.60;49.33;100494.22;2105932;28;46939;-58
2023/07/23 01:14:28;;;;;;;;;2.00;2.00;;;;;26.59;49.32;100489.78;2106103;28;46642;-59
2023/07/23 01:15:29;;;;;;;;;3.00;3.00;;;;;26.56;49.29;100485.47;2105826;28;46481;-59
2023/07/23 01:16:31;;;;;;;;;1.33;1.33;;;;;26.55;49.60;100481.03;2106119;28;46255;-57
2023/07/23 01:17:32;;;;;;;;;2.75;2.00;;;;;26.52;50.22;100481.28;2106131;28;46706;-58
2023/07/23 01:18:34;;;;;;;;;2.00;1.75;;;;;26.50;49.96;100479.72;2105673;28;46459;-58
2023/07/23 01:19:36;;;;;;;;;2.75;2.75;;;;;26.49;50.48;100488.91;2106003;28;46418;-58
2023/07/23 01:20:36;;;;;;;;;2.00;2.00;;;;;26.48;50.13;100484.44;2097121;28;46633;-59
2023/07/23 01:21:37;;;;;;;;;2.00;2.00;;;;;26.46;50.08;100481.03;2097257;28;46409;-58
2023/07/23 01:22:38;;;;;;;;;1.00;1.00;;;;;26.44;50.66;100475.72;2105652;28;46870;-58
2023/07/23 01:23:38;;;;;;;;;3.67;3.00;;;;;26.45;50.24;100463.84;2105630;28;46355;-58
2023/07/23 01:24:38;;;;;;;;;3.33;2.33;;;;;26.43;50.35;100471.28;2087756;28;46214;-58
2023/07/23 01:25:39;;;;;;;;;1.00;1.00;;;;;26.44;50.82;100473.00;2079648;28;46761;-58
2023/07/23 01:26:39;;;;;;;;;1.00;1.00;;;;;26.43;51.14;100464.97;2092188;28;46669;-58
2023/07/23 01:27:39;;;;;;;;;1.00;1.00;;;;;26.42;51.01;100469.53;2106182;28;46534;-59
2023/07/23 01:28:39;;;;;;;;;2.00;2.00;;;;;26.39;51.00;100470.69;2105831;28;46227;-56
2023/07/23 01:29:40;;;;;;;;;1.75;1.75;;;;;26.38;51.15;100465.38;2105535;28;45919;-57
2023/07/23 01:30:40;;;;;;;;;3.00;3.00;;;;;26.36;51.52;100468.25;2105654;28;46888;-57
2023/07/23 01:31:40;;;;;;;;;2.00;2.00;;;;;26.36;51.20;100468.25;2105818;28;46102;-58
2023/07/23 01:32:41;;;;;;;;;2.50;2.50;;;;;26.33;51.87;100463.06;2105641;28;46546;-57
2023/07/23 01:33:42;;;;;;;;;3.00;3.00;;;;;26.32;51.83;100457.75;2106009;28;46437;-58
2023/07/23 01:34:42;;;;;;;;;2.25;2.25;;;;;26.31;51.86;100456.91;2106216;28;44987;-57
2023/07/23 01:35:45;;;;;;;;;2.00;0.75;;;;;26.34;52.23;100453.03;2105703;28;45541;-57
2023/07/23 01:36:46;;;;;;;;;2.00;2.00;;;;;26.35;51.57;100455.63;2106013;28;45701;-59
2023/07/23 01:37:47;;;;;;;;;1.60;1.00;;;;;26.35;51.72;100450.19;2106050;28;46898;-59
2023/07/23 01:38:48;;;;;;;;;1.00;1.00;;;;;26.36;52.09;100435.59;2104498;28;46657;-60
2023/07/23 01:39:49;;;;;;;;;2.25;2.25;;;;;26.39;51.80;100443.47;2106113;28;46630;-59
2023/07/23 01:40:51;;;;;;;;;2.60;1.00;;;;;26.37;51.84;100441.91;2105904;28;46502;-58
2023/07/23 01:41:52;;;;;;;;;1.00;1.00;;;;;26.36;51.87;100446.47;2105738;28;46753;-59
2023/07/23 01:42:53;;;;;;;;;1.20;1.00;;;;;26.34;52.23;100444.88;2105471;28;46972;-59
2023/07/23 01:43:55;;;;;;;;;2.25;2.25;;;;;26.33;51.79;100438.56;2106127;28;46693;-58
2023/07/23 01:44:55;;;;;;;;;2.40;2.00;;;;;26.33;51.95;100440.44;2105750;28;46553;-57
2023/07/23 01:45:55;;;;;;;;;2.50;2.25;;;;;26.33;52.01;100432.28;2105896;28;45555;-58
2023/07/23 01:46:56;;;;;;;;;1.00;1.00;;;;;26.31;52.25;100432.41;2106025;28;46767;-57
2023/07/23 01:47:56;;;;;;;;;1.00;1.00;;;;;26.31;52.33;100437.88;2105485;28;46422;-58
2023/07/23 01:48:56;;;;;;;;;2.25;2.25;;;;;26.29;52.63;100438.97;2105482;28;46821;-57
2023/07/23 01:49:57;;;;;;;;;2.00;2.00;;;;;26.28;52.67;100435.41;2105858;28;46691;-57
2023/07/23 01:50:57;;;;;;;;;2.00;2.00;;;;;26.26;52.59;100434.69;2105764;28;46854;-58
2023/07/23 01:51:57;;;;;;;;;1.00;1.00;;;;;26.25;53.06;100432.13;2105507;28;46228;-60
2023/07/23 01:52:58;;;;;;;;;2.25;2.25;;;;;26.24;52.42;100430.41;2105903;28;46836;-57
2023/07/23 01:53:58;;;;;;;;;0.00;0.00;;;;;26.23;52.69;100426.81;2105623;28;46229;-60
2023/07/23 01:54:58;;;;;;;;;1.00;1.00;;;;;26.23;53.25;100434.13;2105460;28;46460;-57
2023/07/23 01:55:58;;;;;;;;;2.00;2.00;;;;;26.22;52.75;100443.28;2104324;28;46393;-58
2023/07/23 01:56:59;;;;;;;;;1.00;1.00;;;;;26.20;53.10;100437.13;2105801;28;46357;-58
2023/07/23 01:57:59;;;;;;;;;2.00;2.00;;;;;26.19;53.07;100433.53;2105368;28;46799;-59
2023/07/23 01:59:00;;;;;;;;;2.00;2.00;;;;;26.19;53.03;100436.28;2105742;28;46511;-56
2023/07/23 02:00:00;;;;;;;;;2.00;2.00;;;;;26.21;53.20;100436.97;2105734;28;46660;-58
2023/07/23 02:01:00;;;;;;;;;1.00;1.00;;;;;26.23;52.97;100431.41;2105515;28;46429;-58
2023/07/23 02:02:04;;;;;;;;;1.00;1.00;;;;;26.24;52.66;100428.53;2096744;28;46808;-59
2023/07/23 02:03:04;;;;;;;;;3.40;2.20;;;;;26.23;53.41;100434.97;2097230;28;46418;-58
2023/07/23 02:04:05;;;;;;;;;4.00;2.75;;;;;26.23;53.33;100432.25;2104578;28;45654;-59
2023/07/23 02:05:05;;;;;;;;;3.00;3.00;;;;;26.23;53.26;100439.56;2096606;28;46282;-59
2023/07/23 02:06:05;;;;;;;;;1.25;1.25;;;;;26.21;53.41;100422.53;2096993;28;46185;-60
2023/07/23 02:07:06;;;;;;;;;3.25;2.00;;;;;26.21;53.13;100417.94;2105756;28;46217;-59
2023/07/23 02:08:07;;;;;;;;;2.20;2.20;;;;;26.21;53.30;100426.09;2105266;28;46820;-59
2023/07/23 02:09:07;;;;;;;;;1.75;1.75;;;;;26.21;53.04;100431.53;2105694;28;46601;-57
2023/07/23 02:10:08;;;;;;;;;3.25;1.25;;;;;26.21;53.99;100420.66;2096838;28;46446;-58
2023/07/23 02:11:08;;;;;;;;;2.50;2.50;;;;;26.20;53.98;100426.25;2096572;28;46745;-57
2023/07/23 02:12:08;;;;;;;;;1.50;1.50;;;;;26.19;53.40;100430.81;2105577;28;46411;-60
2023/07/23 02:13:09;;;;;;;;;2.75;2.75;;;;;26.19;53.72;100421.81;2105695;28;46314;-60
2023/07/23 02:14:09;;;;;;;;;3.25;2.00;;;;;26.18;53.93;100431.84;2104898;28;46260;-58
2023/07/23 02:15:10;;;;;;;;;1.00;1.00;;;;;26.19;53.79;100432.69;2105168;28;46579;-59
2023/07/23 02:16:20;;;;;;;;;1.75;1.75;;;;;26.22;54.08;100410.63;2096643;28;46129;-58
2023/07/23 02:17:20;;;;;;;;;2.20;2.00;;;;;26.34;53.50;100423.13;2097895;28;46552;-57
2023/07/23 02:18:21;;;;;;;;;1.50;1.50;;;;;26.26;53.38;100425.66;2105571;28;46456;-58
2023/07/23 02:19:22;;;;;;;;;1.75;1.75;;;;;26.25;54.07;100413.94;2105591;28;46456;-57
2023/07/23 02:20:22;;;;;;;;;2.00;2.00;;;;;26.24;53.62;100424.94;2105268;28;46755;-59
2023/07/23 02:21:22;;;;;;;;;3.00;3.00;;;;;26.22;54.21;100425.09;2105571;28;46484;-58
2023/07/23 02:22:23;;;;;;;;;1.25;1.25;;;;;26.21;53.48;100427.97;2105707;28;46846;-59
2023/07/23 02:23:23;;;;;;;;;3.00;3.00;;;;;26.21;53.76;100438.84;2096456;28;46322;-58
2023/07/23 02:24:24;;;;;;;;;1.00;1.00;;;;;26.20;53.96;100440.72;2096377;28;46638;-57
2023/07/23 02:25:24;;;;;;;;;2.00;1.00;;;;;26.20;53.98;100434.41;2106083;28;45001;-58
2023/07/23 02:26:24;;;;;;;;;2.25;2.25;;;;;26.19;54.15;100436.28;2105448;28;46246;-58
2023/07/23 02:27:25;;;;;;;;;2.25;2.25;;;;;26.18;53.59;100431.84;2105506;28;46474;-58
2023/07/23 02:28:25;;;;;;;;;2.00;2.00;;;;;26.19;53.79;100430.81;2106294;28;46615;-56
2023/07/23 02:29:25;;;;;;;;;2.00;2.00;;;;;26.19;53.80;100428.09;2105664;28;46279;-53
2023/07/23 02:30:27;;;;;;;;;1.75;1.75;;;;;26.23;54.55;100434.97;2096526;28;46768;-59
2023/07/23 02:31:27;;;;;;;;;1.20;1.20;;;;;26.21;54.63;100436.97;2096444;28;46525;-58
2023/07/23 02:32:27;;;;;;;;;1.75;1.75;;;;;26.20;54.31;100416.22;2097637;28;46078;-57
2023/07/23 02:33:28;;;;;;;;;1.67;1.67;;;;;26.22;54.63;100422.38;2104484;28;46165;-57
2023/07/23 02:34:28;;;;;;;;;2.00;1.00;;;;;26.22;54.08;100418.81;2105580;28;46321;-58
2023/07/23 02:35:28;;;;;;;;;1.50;1.50;;;;;26.23;54.71;100409.63;2105568;28;46377;-58
2023/07/23 02:36:29;;;;;;;;;1.00;1.00;;;;;26.21;54.84;100419.81;2105097;28;46706;-58
2023/07/23 02:37:29;;;;;;;;;1.00;1.00;;;;;26.25;54.63;100410.34;2105716;28;46487;-59
2023/07/23 02:38:29;;;;;;;;;1.50;1.50;;;;;26.20;55.02;100418.09;2106019;28;46407;-58
2023/07/23 02:39:32;;;;;;;;;2.25;2.00;;;;;26.16;55.20;100412.03;2105318;28;46440;-58
2023/07/23 02:40:34;;;;;;;;;1.60;1.20;;;;;26.19;54.79;100408.22;2105539;28;46839;-58
2023/07/23 02:41:34;;;;;;;;;2.60;2.60;;;;;26.19;54.92;100416.38;2105291;28;46887;-58
2023/07/23 02:42:34;;;;;;;;;2.00;1.00;;;;;26.19;55.05;100408.22;2105232;28;46655;-57
2023/07/23 02:43:34;;;;;;;;;2.75;2.25;;;;;26.18;55.47;100409.22;2105376;28;46411;-59
2023/07/23 02:44:36;;;;;;;;;1.67;1.67;;;;;26.17;55.20;100402.91;2096503;28;46631;-56
2023/07/23 02:45:37;;;;;;;;;1.50;1.50;;;;;26.19;55.53;100410.94;2096308;28;46784;-59
2023/07/23 02:46:38;;;;;;;;;0.67;0.00;;;;;26.16;55.62;100412.03;2105728;28;46434;-58
2023/07/23 02:47:38;;;;;;;;;1.00;1.00;;;;;26.16;55.70;100406.59;2104967;28;46423;-57
2023/07/23 02:48:38;;;;;;;;;2.50;2.50;;;;;26.16;55.51;100413.91;2096465;28;46336;-58
2023/07/23 02:49:39;;;;;;;;;2.67;1.33;;;;;26.20;56.24;100418.09;2095785;28;46478;-58
2023/07/23 02:50:39;;;;;;;;;1.00;1.00;;;;;26.28;55.32;100408.19;2105091;28;46514;-58
2023/07/23 02:51:40;;;;;;;;;2.00;2.00;;;;;26.21;56.33;100408.91;2106105;28;46327;-58
2023/07/23 02:52:40;;;;;;;;;3.25;3.25;;;;;26.17;56.47;100411.06;2105351;28;46847;-57
2023/07/23 02:53:40;;;;;;;;;4.00;3.25;;;;;26.16;55.93;100412.03;2105318;28;46690;-60
2023/07/23 02:54:42;;;;;;;;;1.00;1.00;;;;;26.14;56.24;100408.63;2105533;28;46216;-59
2023/07/23 02:55:43;;;;;;;;;1.00;1.00;;;;;26.15;56.70;100421.22;2105305;28;46578;-59
2023/07/23 02:56:44;;;;;;;;;2.20;2.20;;;;;26.15;56.40;100413.03;2104960;28;46508;-58
2023/07/23 02:57:44;;;;;;;;;1.00;1.00;;;;;26.16;56.35;100419.34;2105330;28;46380;-58
2023/07/23 02:58:44;;;;;;;;;2.00;2.00;;;;;26.14;56.72;100410.47;2105051;28;45918;-58
2023/07/23 02:59:45;;;;;;;;;3.00;3.00;;;;;26.14;56.54;100426.78;2104947;28;45764;-58
2023/07/23 03:00:45;;;;;;;;;2.00;2.00;;;;;26.11;56.28;100411.63;2105180;28;46419;-58
2023/07/23 03:01:46;;;;;;;;;1.00;1.00;;;;;26.10;56.64;100421.63;2105263;28;46912;-58
2023/07/23 03:02:47;;;;;;;;;2.00;2.00;;;;;26.10;57.22;100410.75;2104902;28;46409;-60
2023/07/23 03:03:47;;;;;;;;;2.00;2.00;;;;;26.08;56.94;100418.22;2105190;28;46342;-57
2023/07/23 03:04:48;;;;;;;;;1.25;1.25;;;;;26.08;56.94;100415.50;2105738;28;46340;-58
2023/07/23 03:05:48;;;;;;;;;0.67;0.67;;;;;26.18;56.99;100407.34;2105511;28;46552;-57
2023/07/23 03:06:48;;;;;;;;;2.67;2.67;;;;;26.18;56.96;100410.06;2103187;28;46473;-58
2023/07/23 03:07:48;;;;;;;;;3.00;2.00;;;;;26.09;57.40;100410.91;2088107;28;46475;-60
2023/07/23 03:08:49;;;;;;;;;2.00;2.00;;;;;26.08;56.93;100420.06;2092012;28;46666;-59
2023/07/23 03:09:49;;;;;;;;;1.00;1.00;;;;;26.10;57.00;100413.47;2096473;28;46643;-57
2023/07/23 03:10:49;;;;;;;;;2.00;2.00;;;;;26.10;57.68;100409.91;2096475;28;46456;-60
2023/07/23 03:11:50;;;;;;;;;1.33;1.33;;;;;26.09;57.59;100403.59;2105066;28;46167;-59
2023/07/23 03:12:50;;;;;;;;;2.75;2.75;;;;;26.16;57.19;100409.31;2104860;28;45104;-59
2023/07/23 03:13:50;;;;;;;;;2.25;2.25;;;;;26.15;57.74;100410.31;2090661;28;46158;-56
2023/07/23 03:14:52;;;;;;;;;1.00;1.00;;;;;26.10;57.02;100418.06;2088306;28;46395;-58
2023/07/23 03:15:52;;;;;;;;;0.00;0.00;;;;;26.04;57.83;100397.75;2105284;28;46693;-58
2023/07/23 03:16:53;;;;;;;;;1.00;1.00;;;;;26.05;58.15;100409.47;2096255;28;46280;-58
2023/07/23 03:17:53;;;;;;;;;2.00;2.00;;;;;26.04;58.10;100405.00;2096146;28;46731;-58
2023/07/23 03:18:53;;;;;;;;;1.67;1.67;;;;;26.05;57.79;100409.47;2105356;28;46437;-56
2023/07/23 03:19:54;;;;;;;;;1.00;1.00;;;;;26.04;58.36;100410.44;2105463;28;46428;-59
2023/07/23 03:20:54;;;;;;;;;1.25;1.25;;;;;26.08;58.16;100401.03;2105178;27;46383;-57
2023/07/23 03:21:55;;;;;;;;;1.67;1.67;;;;;26.07;58.05;100410.19;2105171;28;46284;-58
2023/07/23 03:22:55;;;;;;;;;1.00;1.00;;;;;26.06;58.77;100409.34;2105276;28;46254;-58
2023/07/23 03:23:55;;;;;;;;;1.00;0.00;;;;;26.03;58.86;100406.88;2105054;28;46471;-59
2023/07/23 03:24:56;;;;;;;;;3.00;3.00;;;;;26.02;58.70;100404.28;2105163;28;46537;-56
2023/07/23 03:25:56;;;;;;;;;4.00;2.00;;;;;26.00;59.17;100403.56;2105156;28;46344;-57
2023/07/23 03:26:56;;;;;;;;;2.00;2.00;;;;;25.99;58.53;100405.44;2104852;28;46501;-57
2023/07/23 03:27:59;;;;;;;;;3.67;2.00;;;;;25.98;58.42;100402.88;2105414;28;47110;-58
2023/07/23 03:28:59;;;;;;;;;4.00;4.00;;;;;26.02;58.48;100407.88;2105445;28;46633;-57
2023/07/23 03:30:00;;;;;;;;;2.00;2.00;;;;;26.02;58.52;100409.72;2105118;28;46592;-60
2023/07/23 03:31:00;;;;;;;;;1.33;1.33;;;;;26.03;58.55;100396.00;2096371;28;46160;-59
2023/07/23 03:32:00;;;;;;;;;3.00;3.00;;;;;25.99;58.61;100410.03;2087993;28;45293;-59
2023/07/23 03:33:01;;;;;;;;;1.00;1.00;;;;;25.98;59.34;100405.59;2095982;28;46103;-59
2023/07/23 03:34:01;;;;;;;;;3.00;1.00;;;;;25.95;59.37;100404.00;2104858;28;46992;-60
2023/07/23 03:35:01;;;;;;;;;3.33;2.67;;;;;25.95;59.17;100405.88;2105148;28;46134;-59
2023/07/23 03:36:02;;;;;;;;;2.00;2.00;;;;;25.94;59.68;100407.72;2105162;28;46928;-60
2023/07/23 03:37:02;;;;;;;;;2.67;2.67;;;;;25.94;59.50;100396.84;2104905;28;46796;-57
2023/07/23 03:38:03;;;;;;;;;4.50;3.00;;;;;25.94;60.15;100396.00;2105215;28;46255;-60
2023/07/23 03:39:03;;;;;;;;;2.00;2.00;;;;;25.94;59.77;100409.59;2105314;28;46364;-59
2023/07/23 03:40:04;;;;;;;;;2.00;2.00;;;;;25.94;60.29;100410.44;2104540;28;46201;-59
2023/07/23 03:41:04;;;;;;;;;4.00;3.00;;;;;25.94;59.93;100410.44;2086959;28;46403;-56
2023/07/23 03:42:06;;;;;;;;;2.00;1.67;;;;;25.94;60.77;100406.88;2087153;28;46608;-57
2023/07/23 03:43:06;;;;;;;;;1.00;1.00;;;;;25.94;60.78;100415.88;2105094;28;46774;-59
2023/07/23 03:44:07;;;;;;;;;3.33;2.00;;;;;25.93;60.98;100405.16;2105068;28;46242;-58
2023/07/23 03:45:08;;;;;;;;;3.00;3.00;;;;;25.91;60.73;100402.53;2105267;28;45461;-59
2023/07/23 03:46:08;;;;;;;;;2.50;2.50;;;;;25.90;60.62;100394.53;2104576;28;46468;-57
2023/07/23 03:47:10;;;;;;;;;3.67;3.00;;;;;25.90;61.05;100384.50;2105097;28;46197;-58
2023/07/23 03:48:10;;;;;;;;;4.50;2.75;;;;;25.88;60.91;100386.53;2095652;28;46421;-56
2023/07/23 03:49:11;;;;;;;;;2.00;2.00;;;;;25.89;61.38;100388.25;2096374;28;45591;-58
2023/07/23 03:50:12;;;;;;;;;2.50;2.25;;;;;25.89;60.89;100384.66;2096476;28;46695;-58
2023/07/23 03:51:15;;;;;;;;;2.00;2.00;;;;;25.87;61.29;100384.81;2103649;28;47202;-59
2023/07/23 03:52:15;;;;;;;;;2.75;2.00;;;;;25.87;60.87;100383.94;2104960;28;46873;-58
2023/07/23 03:53:15;;;;;;;;;2.00;2.00;;;;;25.86;60.78;100384.94;2105349;28;46403;-57
2023/07/23 03:54:16;;;;;;;;;1.67;1.67;;;;;25.85;61.65;100378.66;2104775;28;46204;-57
2023/07/23 03:55:16;;;;;;;;;2.67;2.67;;;;;25.84;61.22;100385.09;2105229;28;46603;-57
2023/07/23 03:56:16;;;;;;;;;1.33;1.33;;;;;25.86;61.73;100382.22;2104977;28;46751;-59
2023/07/23 03:57:17;;;;;;;;;2.00;2.00;;;;;25.86;61.41;100371.34;2104543;28;46608;-57
2023/07/23 03:58:17;;;;;;;;;2.67;2.67;;;;;25.87;61.54;100386.66;2105110;28;46347;-57
2023/07/23 03:59:18;;;;;;;;;3.00;2.00;;;;;25.86;62.01;100365.91;2105215;28;46474;-58
2023/07/23 04:00:18;;;;;;;;;2.00;1.00;;;;;25.84;62.09;100370.63;2104770;28;46970;-58
2023/07/23 04:01:18;;;;;;;;;3.00;3.00;;;;;25.81;62.09;100367.19;2105185;27;46583;-58
2023/07/23 04:02:18;;;;;;;;;1.33;1.33;;;;;25.80;61.94;100362.78;2105574;28;46408;-58
2023/07/23 04:03:19;;;;;;;;;1.33;1.33;;;;;25.80;62.11;100370.06;2106019;28;46316;-59
2023/07/23 04:04:19;;;;;;;;;2.00;2.00;;;;;25.81;62.53;100360.91;2106556;28;46593;-54
2023/07/23 04:05:19;;;;;;;;;1.33;1.33;;;;;25.80;62.09;100370.94;2097551;28;46869;-57
2023/07/23 04:06:20;;;;;;;;;2.25;2.25;;;;;25.80;62.44;100361.91;2097198;28;46043;-59
2023/07/23 04:07:20;;;;;;;;;2.25;2.25;;;;;25.92;62.21;100360.78;2106637;28;46556;-59
2023/07/23 04:08:20;;;;;;;;;3.75;3.00;;;;;25.87;62.17;100354.91;2106533;28;46378;-58
2023/07/23 04:09:21;;;;;;;;;0.75;0.75;;;;;25.83;62.96;100358.91;2106292;28;46931;-59
2023/07/23 04:10:21;;;;;;;;;1.75;1.75;;;;;25.82;62.38;100359.91;2106589;28;46693;-56
2023/07/23 04:11:21;;;;;;;;;2.00;2.00;;;;;25.80;62.72;100357.34;2106386;28;46301;-59
2023/07/23 04:12:22;;;;;;;;;2.00;2.00;;;;;25.77;63.10;100352.16;2098755;28;46279;-58
2023/07/23 04:13:23;;;;;;;;;2.50;2.50;;;;;25.73;63.14;100361.59;2100347;28;46672;-58
2023/07/23 04:14:24;;;;;;;;;3.67;3.67;;;;;25.72;62.86;100367.16;2097761;28;46545;-57
2023/07/23 04:15:25;;;;;;;;;3.00;3.00;;;;;25.75;63.49;100361.44;2097144;28;46596;-59
2023/07/23 04:16:28;;;;;;;;;3.33;3.33;;;;;25.74;63.29;100362.44;2098549;28;46226;-58
2023/07/23 04:17:28;;;;;;;;;2.80;2.80;;;;;25.70;63.67;100356.44;2106378;28;46790;-57
2023/07/23 04:18:46;;;;;;;;;4.00;4.00;;;;;25.72;63.67;100367.16;2106789;28;45851;-58
2023/07/23 04:19:46;;;;;;;;;3.20;3.20;;;;;25.70;63.27;100369.19;2106140;28;46689;-59
2023/07/23 04:20:46;;;;;;;;;3.00;2.00;;;;;25.71;64.24;100362.75;2106566;28;46013;-57
2023/07/23 04:21:47;;;;;;;;;3.00;3.00;;;;;25.69;63.88;100367.47;2106172;28;46765;-58
2023/07/23 04:22:47;;;;;;;;;6.25;4.00;;;;;25.67;64.14;100364.00;2106500;28;46465;-58
2023/07/23 04:23:49;;;;;;;;;5.00;4.00;;;;;25.67;63.74;100359.41;2106446;28;46951;-59
2023/07/23 04:24:49;;;;;;;;;5.20;4.00;;;;;25.67;64.85;100358.56;2106267;28;46200;-59
2023/07/23 04:25:49;;;;;;;;;2.33;1.67;;;;;25.67;65.00;100361.28;2106449;28;46269;-58
2023/07/23 04:26:50;;;;;;;;;3.00;3.00;;;;;25.65;65.00;100365.97;2106378;28;46378;-59
2023/07/23 04:27:50;;;;;;;;;3.00;3.00;;;;;25.64;65.35;100353.38;2106062;28;46273;-58
2023/07/23 04:28:50;;;;;;;;;4.00;3.00;;;;;25.65;64.80;100360.53;2106480;28;46654;-58
2023/07/23 04:29:51;;;;;;;;;2.33;2.33;;;;;25.63;64.62;100357.94;2106468;28;46432;-59
2023/07/23 04:30:52;;;;;;;;;2.00;2.00;;;;;25.63;65.17;100360.66;2106353;28;46726;-56
2023/07/23 04:31:52;;;;;;;;;5.50;4.00;;;;;25.63;65.30;100355.22;2106745;28;46231;-56
2023/07/23 04:32:52;;;;;;;;;2.33;2.33;;;;;25.63;65.20;100346.22;2106141;28;46823;-58
2023/07/23 04:33:53;;;;;;;;;2.00;2.00;;;;;25.63;65.56;100357.94;2106416;28;46654;-58
2023/07/23 04:34:53;;;;;;;;;2.67;2.67;;;;;25.62;65.56;100355.38;2106414;28;46865;-57
2023/07/23 04:35:54;;;;;;;;;2.00;2.00;;;;;25.62;65.85;100360.81;2106275;28;46594;-58
2023/07/23 04:36:54;;;;;;;;;1.67;1.67;;;;;25.61;65.79;100362.66;2106321;28;46717;-59
2023/07/23 04:37:54;;;;;;;;;2.00;2.00;;;;;25.61;66.17;100348.22;2106068;28;46527;-59
2023/07/23 04:38:55;;;;;;;;;3.67;3.67;;;;;25.60;65.53;100358.22;2106357;28;46520;-59
2023/07/23 04:39:55;;;;;;;;;2.75;2.75;;;;;25.59;65.67;100364.66;2106104;28;46465;-58
2023/07/23 04:40:55;;;;;;;;;4.00;3.50;;;;;25.57;65.96;100363.97;2106157;28;46255;-56
2023/07/23 04:41:55;;;;;;;;;4.00;4.00;;;;;25.59;66.52;100361.09;2106405;28;46189;-58